Brinkmann, Argentina
Current Conditions -  °F | °C
As of 12:00 PM on Wednesday 26 Nov 2014 (Local Time) from SACO Reporting Station
Few Clouds Few Clouds  
Wind Chill: 77°   Ceiling: Unl
Heat Index: 79°   Visibility: 6mi
Dew Point: 59°   Wind: 8mph
Humidity: 54%   Direction: 360°N
Pressure: 30.03"   Gusts: NA
Location:  30.9°S, 62°W
Report Text: SACO 261500Z 36007KT 9999 FEW030FEW040CB 25/15 Q1017
Loading
Personal Weather Stations






























Interactive Weather Map New forecast layout! Learn more

10-Day Weather Forecast

Advertisements
Track Severe Weather on mobile